Date,TemperatureHighF,TemperatureAvgF,TemperatureLowF,DewpointHighF,DewpointAvgF,DewpointLowF,HumidityHigh,HumidityAvg,HumidityLow,PressureMaxIn,PressureMinIn,WindSpeedMaxMPH,WindSpeedAvgMPH,GustSpeedMaxMPH,PrecipitationSumIn
2013-1-1,31.0,21.4,9.0,25.0,14.1,3.0,88,77,68,29.75,29.57,28,9,28,0.00
2013-1-2,20.0,10.5,-5.0,15.0,5.2,-11.0,89,83,70,29.97,29.70,23,8,23,0.00
2013-1-3,26.0,4.2,-7.0,21.0,-2.4,-11.0,88,78,65,29.97,29.70,23,6,23,0.00
2013-1-4,33.0,27.8,16.0,24.0,18.6,10.0,85,72,61,29.90,29.64,33,10,38,0.00
2013-1-5,33.0,28.9,23.0,24.0,19.5,14.0,84,71,52,30.07,29.72,27,8,30,0.00
2013-1-6,36.0,29.7,23.0,29.0,23.5,16.0,100,81,68,30.04,29.73,18,9,20,0.00
2013-1-7,32.0,24.7,19.0,30.0,20.2,16.0,97,87,75,30.21,29.82,23,6,25,0.00
2013-1-8,38.0,30.9,23.0,26.0,22.5,16.0,89,74,61,30.21,30.07,19,8,21,0.00
2013-1-9,43.0,34.3,27.0,32.0,25.2,21.0,86,73,52,30.25,29.82,42,13,58,0.74
2013-1-10,38.0,32.4,25.0,30.0,22.8,18.0,86,71,60,30.41,29.99,27,8,29,0.74
2013-1-11,40.0,31.8,25.0,39.0,27.0,18.0,100,85,61,30.38,29.91,29,9,31,0.25
2013-1-12,44.0,40.2,36.0,44.0,40.2,36.0,100,100,100,30.01,29.91,20,10,22,0.02
2013-1-13,47.0,42.6,39.0,46.0,42.6,39.0,100,100,100,30.00,29.71,34,13,37,0.05
2013-1-14,47.0,37.2,27.0,47.0,33.1,20.0,100,87,67,30.19,29.70,31,11,36,0.06
2013-1-15,30.0,26.7,25.0,23.0,19.6,17.0,86,78,66,30.20,29.88,13,4,13,0.00
2013-1-16,30.0,25.5,22.0,28.0,24.5,18.0,100,97,79,30.07,29.63,15,4,16,0.00
2013-1-17,33.0,25.1,13.0,29.0,18.9,-2.0,100,81,60,30.09,29.66,24,8,26,0.00
2013-1-18,23.0,12.4,4.0,8.0,1.0,-6.0,85,63,47,30.19,29.89,35,9,37,0.00
2013-1-19,39.0,34.3,19.0,25.0,19.7,6.0,69,58,52,30.02,29.41,31,16,32,0.02
2013-1-20,39.0,26.6,13.0,30.0,15.8,2.0,95,67,45,29.84,29.37,38,13,38,0.00
2013-1-21,20.0,15.8,9.0,16.0,8.8,-5.0,98,78,57,29.84,29.55,25,6,26,0.00
2013-1-22,15.0,8.0,-3.0,14.0,-0.1,-11.0,98,74,46,29.95,29.54,32,9,33,0.00
2013-1-23,4.0,-0.5,-4.0,-1.0,-9.1,-13.0,92,70,57,29.99,29.88,26,7,29,0.00
2013-1-24,8.0,0.9,-8.0,-2.0,-8.0,-13.0,85,70,49,30.19,29.93,32,8,34,0.00
2013-1-25,11.0,5.0,-1.0,6.0,-3.5,-10.0,97,72,50,30.21,29.88,16,6,19,0.00
2013-1-26,15.0,7.3,1.0,7.0,2.1,-1.0,97,84,61,30.27,29.87,16,5,18,0.00
2013-1-27,22.0,12.2,5.0,5.0,1.2,-4.0,95,67,39,30.36,30.15,13,5,17,0.00
2013-1-28,30.0,21.6,14.0,29.0,14.9,-3.0,100,80,43,30.32,29.80,21,6,22,0.00
2013-1-29,43.0,31.6,23.0,43.0,31.6,23.0,100,100,100,30.02,29.63,36,7,39,0.36
2013-1-30,56.0,48.7,37.0,56.0,48.7,37.0,100,100,100,29.85,28.79,49,19,53,1.13
2013-1-31,53.0,33.5,18.0,53.0,28.8,5.0,100,86,60,29.57,28.79,46,14,51,1.17
2013-2-1,22.0,17.2,10.0,16.0,7.8,1.0,95,70,55,29.98,29.47,31,11,36,0.00
2013-2-2,22.0,15.1,9.0,13.0,6.5,1.0,93,72,54,29.98,29.72,22,7,26,0.00
2013-2-3,24.0,18.1,14.0,15.0,10.8,8.0,97,78,60,29.82,29.55,23,3,25,0.00
2013-2-4,20.0,15.7,12.0,15.0,9.2,5.0,95,79,58,29.76,29.55,29,8,34,0.00
2013-2-5,25.0,17.8,12.0,21.0,10.2,6.0,99,76,57,29.78,29.67,14,4,17,0.00
2013-2-6,28.0,21.5,12.0,23.0,13.3,-1.0,100,76,43,30.26,29.67,35,9,35,0.00
2013-2-7,23.0,15.4,8.0,11.0,3.7,-2.0,83,63,47,30.32,29.99,13,4,13,0.00
2013-2-8,30.0,22.1,18.0,22.0,15.8,6.0,100,80,54,30.15,29.63,29,5,34,0.00
2013-2-9,19.0,11.9,6.0,18.0,5.0,-5.0,100,78,50,30.28,29.66,28,10,28,0.00
2013-2-10,31.0,16.0,5.0,3.0,-0.5,-6.0,75,52,26,30.34,29.86,37,4,40,0.00
2013-2-11,40.0,33.6,27.0,39.0,26.9,-2.0,100,82,29,30.11,29.50,37,15,39,0.04
2013-2-12,34.0,30.9,27.0,32.0,24.8,20.0,93,81,74,29.78,29.55,34,10,40,0.00
2013-2-13,34.0,28.5,21.0,23.0,19.5,15.0,90,73,55,29.73,29.55,14,5,17,0.00
2013-2-14,34.0,29.1,22.0,25.0,19.5,16.0,83,71,62,29.79,29.55,24,6,26,0.00
2013-2-15,43.0,34.7,25.0,27.0,23.4,14.0,100,67,49,29.87,29.71,22,9,24,0.00
2013-2-16,28.0,22.1,14.0,25.0,13.3,0.0,100,72,55,29.86,29.50,26,6,27,0.00
2013-2-17,20.0,12.2,6.0,4.0,-0.3,-6.0,75,61,38,29.91,29.42,35,13,40,0.07
2013-2-18,27.0,12.9,2.0,5.0,-1.6,-7.0,75,56,40,29.96,29.69,26,9,30,0.00
2013-2-19,39.0,30.5,20.0,34.0,20.1,3.0,100,70,48,29.93,29.45,38,12,44,0.19
2013-2-20,28.0,21.7,18.0,28.0,13.4,5.0,100,74,52,29.73,29.48,37,12,40,0.00
2013-2-21,20.0,14.3,11.0,13.0,8.0,3.0,93,79,70,30.19,29.66,29,10,31,0.00
2013-2-22,33.0,23.7,15.0,23.0,17.7,11.0,97,82,67,30.21,29.97,20,5,23,0.00
2013-2-23,35.0,31.9,29.0,33.0,28.5,22.0,100,90,75,30.07,29.68,22,8,25,0.00
2013-2-24,33.0,29.9,25.0,33.0,29.2,23.0,100,99,89,29.97,29.65,19,5,23,0.05
2013-2-25,37.0,30.2,24.0,29.0,25.5,23.0,100,87,64,30.15,29.86,10,4,11,0.02
2013-2-26,39.0,32.2,26.0,33.0,25.6,22.0,99,81,62,30.16,29.64,27,4,27,0.01
2013-2-27,41.0,35.7,28.0,37.0,32.6,22.0,100,90,67,29.90,29.40,27,6,34,0.32
2013-2-28,39.0,34.0,29.0,38.0,33.4,28.0,100,98,87,29.53,29.42,13,4,13,0.06
2013-3-1,34.0,29.6,25.0,34.0,29.1,22.0,100,99,93,29.62,29.46,15,5,16,0.05
2013-3-2,29.0,24.2,18.0,27.0,21.9,13.0,100,94,81,29.61,29.53,14,6,18,0.00
2013-3-3,25.0,19.6,15.0,23.0,17.2,13.0,100,94,84,29.58,29.50,23,7,24,0.00
2013-3-4,25.0,22.0,19.0,20.0,17.9,15.0,95,88,79,29.87,29.55,31,10,31,0.00
2013-3-5,34.0,27.3,23.0,26.0,21.9,18.0,93,84,74,29.93,29.76,19,7,20,0.00
2013-3-6,38.0,30.9,27.0,32.0,24.3,19.0,99,80,68,29.99,29.88,23,7,25,0.00
2013-3-7,31.0,27.4,24.0,28.0,22.8,19.0,100,86,68,30.00,29.92,27,8,32,0.02
2013-3-8,36.0,27.5,24.0,34.0,24.3,19.0,100,90,69,30.16,29.92,28,11,29,0.04
2013-3-9,46.0,34.0,23.0,24.0,20.4,16.0,93,63,37,30.22,30.10,17,7,19,0.00
2013-3-10,50.0,40.4,28.0,29.0,21.7,17.0,74,51,30,30.22,30.02,30,12,30,0.00
2013-3-11,49.0,41.3,34.0,46.0,33.3,25.0,92,75,52,30.11,29.75,37,16,37,0.02
2013-3-12,51.0,42.4,29.0,51.0,41.2,26.0,100,96,85,29.88,29.56,29,12,36,1.00
2013-3-13,40.0,32.0,21.0,34.0,22.8,9.0,95,74,43,29.74,29.65,29,8,29,0.01
2013-3-14,27.0,20.2,15.0,21.0,10.1,3.0,80,67,56,29.76,29.68,34,12,40,0.00
2013-3-15,32.0,24.6,15.0,28.0,17.2,5.0,100,77,58,29.76,29.49,26,9,28,0.00
2013-3-16,29.0,23.2,15.0,23.0,12.5,6.0,95,67,47,29.86,29.59,18,6,20,0.00
2013-3-17,30.0,22.1,15.0,13.0,5.0,-4.0,80,52,32,30.24,29.74,25,8,27,0.00
2013-3-18,34.0,24.7,16.0,26.0,8.2,-4.0,100,56,29,30.25,29.68,20,4,21,0.00
2013-3-19,32.0,27.0,21.0,32.0,26.9,16.0,100,100,89,29.91,29.54,26,4,26,0.00
2013-3-20,29.0,24.1,18.0,24.0,17.9,11.0,100,81,64,29.64,29.58,25,9,28,0.00
2013-3-21,30.0,22.9,17.0,17.0,10.4,6.0,89,62,45,29.64,29.48,19,6,19,0.00
2013-3-22,29.0,23.5,17.0,23.0,16.9,7.0,95,79,63,29.65,29.50,37,8,38,0.00
2013-3-23,33.0,28.0,24.0,23.0,18.9,14.0,95,73,54,29.74,29.59,36,11,37,0.00
2013-3-24,37.0,30.8,24.0,22.0,19.6,17.0,85,67,52,29.74,29.53,16,6,19,0.00
2013-3-25,38.0,32.0,24.0,27.0,23.1,19.0,89,73,53,29.63,29.39,16,6,16,0.00
2013-3-26,41.0,34.9,29.0,28.0,20.7,15.0,90,60,40,29.73,29.47,19,6,23,0.00
2013-3-27,43.0,35.4,30.0,30.0,25.3,15.0,98,70,50,29.85,29.70,24,7,27,0.00
2013-3-28,43.0,36.3,29.0,36.0,30.7,26.0,100,83,66,30.00,29.81,17,6,17,0.01
2013-3-29,45.0,37.1,32.0,33.0,27.9,26.0,87,73,57,30.00,29.94,24,7,26,0.00
2013-3-30,50.0,41.1,32.0,29.0,21.8,15.0,85,51,33,30.02,29.93,25,7,25,0.00
2013-3-31,52.0,42.2,36.0,40.0,27.4,15.0,100,62,34,30.01,29.51,32,10,36,0.13
2013-4-1,48.0,34.3,20.0,44.0,27.5,8.0,100,80,42,29.75,29.44,39,10,41,0.08
2013-4-2,29.0,24.3,19.0,20.0,14.6,7.0,97,71,48,29.91,29.72,46,12,49,0.01
2013-4-3,32.0,26.3,21.0,20.0,12.9,6.0,89,61,38,30.18,29.84,40,12,42,0.00
2013-4-4,49.0,38.3,23.0,21.0,17.8,15.0,84,48,29,30.20,29.76,24,10,26,0.00
2013-4-5,47.0,36.6,23.0,27.0,19.7,4.0,90,55,34,30.08,29.65,33,11,35,0.00
2013-4-6,42.0,34.5,23.0,27.0,6.8,0.0,90,34,20,30.17,29.86,27,9,31,0.00
2013-4-7,54.0,44.7,34.0,40.0,27.9,5.0,81,56,26,30.12,29.73,42,16,46,0.14
2013-4-8,59.0,51.0,39.0,47.0,35.4,30.0,82,58,39,30.03,29.73,29,8,32,0.06
2013-4-9,58.0,50.4,44.0,47.0,41.8,38.0,100,73,48,29.96,29.73,31,10,33,0.40
2013-4-10,56.0,46.6,39.0,52.0,45.9,34.0,100,98,70,29.92,29.73,21,6,23,0.92
2013-4-11,42.0,33.0,27.0,42.0,28.9,21.0,100,88,63,30.02,29.78,19,7,22,0.01
2013-4-12,37.0,34.1,28.0,37.0,33.9,25.0,100,100,92,29.99,29.65,11,3,11,0.18
2013-4-13,45.0,39.8,34.0,41.0,36.6,32.0,100,89,75,29.87,29.67,23,4,26,0.01
2013-4-14,42.0,37.3,31.0,36.0,26.0,19.0,98,67,51,30.22,29.81,29,8,34,0.01
2013-4-15,58.0,45.6,30.0,35.0,27.2,19.0,74,51,39,30.25,30.10,34,8,34,0.00
2013-4-16,57.0,50.1,43.0,54.0,42.4,26.0,98,76,53,30.21,29.93,40,18,41,0.38
2013-4-17,59.0,48.1,38.0,44.0,32.5,24.0,90,59,30,30.25,30.06,21,7,21,0.00
2013-4-18,61.0,50.5,42.0,50.0,33.4,27.0,100,55,35,30.25,29.80,37,13,44,0.00
2013-4-19,69.0,56.9,39.0,60.0,53.8,36.0,100,90,73,29.93,29.48,44,16,47,0.78
2013-4-20,47.0,38.3,25.0,42.0,28.9,14.0,100,73,45,30.41,29.64,30,9,31,0.25
2013-4-21,45.0,34.4,24.0,19.0,14.0,6.0,73,48,26,30.59,30.21,18,7,20,0.00
2013-4-22,54.0,42.1,32.0,26.0,16.5,8.0,68,39,23,30.60,30.35,21,4,23,0.00
2013-4-23,50.0,40.3,30.0,38.0,30.5,22.0,85,70,61,30.41,29.94,11,4,11,0.00
2013-4-24,69.0,52.2,38.0,50.0,41.2,29.0,94,70,42,30.05,29.64,36,8,41,0.05
2013-4-25,58.0,43.9,35.0,50.0,28.5,20.0,95,60,36,30.29,29.66,27,8,27,0.05
2013-4-26,54.0,44.5,34.0,36.0,27.1,20.0,83,54,33,30.36,30.17,18,5,19,0.00
2013-4-27,59.0,49.2,37.0,35.0,26.5,12.0,75,46,19,30.36,30.19,12,2,13,0.00
2013-4-28,69.0,57.4,47.0,39.0,32.1,27.0,56,40,23,30.24,30.10,0,0,0,0.00
2013-4-29,57.0,52.4,48.0,44.0,38.0,28.0,81,60,40,30.20,30.11,0,0,0,0.01
2013-4-30,69.0,56.7,48.0,42.0,36.0,23.0,81,49,30,30.36,30.13,0,0,0,0.00
2013-5-1,73.0,59.7,51.0,41.0,29.2,23.0,69,34,20,30.42,30.25,0,0,0,0.00
2013-5-2,78.0,62.5,49.0,46.0,38.0,23.0,69,44,23,30.41,30.24,0,0,0,0.00
2013-5-3,70.0,57.9,48.0,42.0,32.7,24.0,72,41,21,30.42,30.25,0,0,0,0.00
2013-5-4,74.0,59.7,48.0,44.0,38.2,25.0,74,49,23,30.29,30.12,0,0,0,0.00
2013-5-5,72.0,57.0,45.0,41.0,33.1,25.0,72,44,23,30.21,30.08,0,0,0,0.00
2013-5-6,73.0,57.6,44.0,51.0,39.1,15.0,87,57,12,30.18,30.01,0,0,0,0.00
2013-5-7,77.0,64.1,54.0,55.0,50.2,45.0,87,64,36,30.10,29.99,0,0,0,0.00
2013-5-8,70.0,62.2,54.0,61.0,56.1,52.0,99,82,58,30.09,29.88,0,0,0,0.16
2013-5-9,67.0,58.5,54.0,57.0,53.4,48.0,100,84,54,29.94,29.80,0,0,0,0.01
2013-5-10,73.0,63.4,53.0,59.0,53.1,47.0,99,72,47,29.93,29.66,0,0,0,0.17
2013-5-11,66.0,58.8,49.0,64.0,57.1,45.0,100,95,66,29.77,29.58,0,0,0,0.62
2013-5-12,54.0,47.3,37.0,50.0,37.2,23.0,95,72,36,29.82,29.58,0,0,0,0.00
2013-5-13,44.0,39.6,37.0,30.0,26.2,23.0,77,62,52,29.98,29.75,0,0,0,0.00
2013-5-14,53.0,43.9,35.0,33.0,27.4,23.0,86,56,38,29.99,29.88,0,0,0,0.00
2013-5-15,63.0,52.3,42.0,52.0,38.4,23.0,94,62,41,29.95,29.51,0,0,0,0.13
2013-5-16,74.0,62.3,44.0,48.0,36.9,27.0,80,42,23,29.97,29.60,0,0,0,0.00
2013-5-17,65.0,55.0,42.0,41.0,37.3,33.0,85,54,34,30.20,29.80,0,0,0,0.00
2013-5-18,68.0,58.6,51.0,49.0,40.9,33.0,91,54,32,30.23,30.14,0,0,0,0.00
2013-5-19,56.0,53.8,51.0,55.0,52.5,48.0,100,96,84,30.23,29.97,0,0,0,0.08
2013-5-20,76.0,63.9,53.0,64.0,59.1,53.0,100,86,62,30.08,29.84,0,0,0,0.00
2013-5-21,83.0,69.7,61.0,67.0,63.8,58.0,100,83,51,29.92,29.76,0,0,0,1.32
2013-5-22,74.0,66.9,59.0,71.0,66.1,59.0,100,97,87,29.85,29.74,0,0,0,1.98
2013-5-23,71.0,66.5,61.0,69.0,64.7,50.0,100,94,86,29.80,29.59,0,0,0,0.19
2013-5-24,64.0,48.3,40.0,64.0,48.3,40.0,100,100,100,29.90,29.60,0,0,0,1.13
2013-5-25,43.0,40.4,39.0,42.0,40.4,38.0,100,100,100,29.88,29.74,0,0,0,1.59
2013-5-26,51.0,45.9,39.0,44.0,40.8,36.0,100,84,64,30.09,29.74,0,0,0,0.15
2013-5-27,65.0,54.7,44.0,41.0,35.4,28.0,76,51,33,30.12,30.03,0,0,0,0.00
2013-5-28,67.0,56.6,49.0,57.0,43.4,28.0,100,64,37,30.13,29.96,0,0,0,0.22
2013-5-29,120.0,62.7,55.0,69.0,61.4,52.0,100,96,82,33.09,29.88,0,0,0,1.83
2013-5-30,82.0,72.8,63.0,70.0,64.6,61.0,100,78,53,30.09,30.00,0,0,0,0.01
2013-5-31,87.0,77.3,69.0,69.0,64.3,60.0,89,66,46,30.09,29.91,0,0,0,0.00
2013-6-1,85.0,76.2,69.0,70.0,64.8,60.0,81,68,53,29.95,29.76,0,0,0,0.00
2013-6-2,82.0,72.2,65.0,72.0,67.5,58.0,100,86,66,29.83,29.66,0,0,0,0.26
2013-6-3,67.0,58.2,44.0,67.0,50.3,35.0,100,77,47,29.89,29.76,0,0,0,0.05
2013-6-4,66.0,54.7,44.0,46.0,41.3,37.0,88,62,43,30.11,29.86,0,0,0,0.00
2013-6-5,68.0,58.9,50.0,46.0,42.2,37.0,68,55,40,30.14,30.04,0,0,0,0.00
2013-6-6,68.0,59.6,53.0,56.0,48.5,42.0,100,69,43,30.08,29.88,0,0,0,0.53
2013-6-7,56.0,54.1,52.0,56.0,54.1,50.0,100,100,100,29.96,29.63,0,0,0,0.60
2013-6-8,65.0,57.4,51.0,63.0,56.0,51.0,100,95,85,30.09,29.63,0,0,0,0.35
2013-6-9,72.0,63.8,57.0,58.0,54.5,51.0,95,74,53,30.14,29.99,0,0,0,0.00
2013-6-10,66.0,61.2,58.0,62.0,57.5,52.0,100,89,63,30.14,29.65,0,0,0,0.68
2013-6-11,67.0,59.4,53.0,67.0,59.1,52.0,100,99,95,29.81,29.52,0,0,0,1.16
2013-6-12,66.0,59.7,53.0,56.0,52.0,47.0,98,77,58,29.81,29.58,0,0,0,0.00
2013-6-13,62.0,55.5,51.0,56.0,52.2,47.0,100,90,60,29.78,29.59,0,0,0,1.47
2013-6-14,70.0,59.5,51.0,59.0,54.9,50.0,100,86,53,29.90,29.61,0,0,0,0.01
2013-6-15,71.0,62.1,54.0,56.0,46.8,37.0,98,61,38,29.94,29.83,0,0,0,0.00
2013-6-16,67.0,62.0,55.0,62.0,52.6,38.0,98,73,43,29.92,29.66,0,0,0,0.01
2013-6-17,75.0,65.6,58.0,65.0,61.0,56.0,100,86,62,29.90,29.77,0,0,0,0.28
2013-6-18,64.0,57.4,50.0,59.0,55.8,44.0,100,95,80,29.95,29.85,0,0,0,0.03
2013-6-19,66.0,57.9,50.0,54.0,44.4,34.0,100,64,35,30.18,29.87,0,0,0,0.00
2013-6-20,73.0,62.0,50.0,55.0,48.4,41.0,87,63,43,30.21,30.11,0,0,0,0.00
2013-6-21,78.0,69.2,58.0,60.0,52.2,40.0,87,59,32,30.23,30.13,0,0,0,0.00
2013-6-22,78.0,70.6,63.0,64.0,60.8,57.0,81,72,58,30.16,30.03,0,0,0,0.00
2013-6-23,85.0,75.4,67.0,72.0,66.2,60.0,93,74,56,30.08,29.97,0,0,0,0.00
2013-6-24,85.0,72.8,66.0,72.0,67.2,58.0,100,84,55,30.02,29.88,0,0,0,0.24
2013-6-25,83.0,71.8,65.0,72.0,67.8,63.0,100,88,61,29.96,29.73,0,0,0,0.29
2013-6-26,78.0,70.9,67.0,70.0,68.0,65.0,100,91,72,29.80,29.73,0,0,0,0.01
2013-6-27,79.0,72.2,67.0,71.0,68.1,63.0,100,88,64,29.80,29.32,0,0,0,0.78
2013-6-28,75.0,69.8,66.0,71.0,67.1,64.0,100,92,73,29.58,29.33,0,0,0,1.09
2013-6-29,77.0,69.9,65.0,70.0,65.6,63.0,100,87,71,29.74,29.43,0,0,0,0.22
2013-6-30,80.0,70.5,67.0,70.0,67.2,63.0,100,90,69,29.92,29.65,0,0,0,0.28
2013-7-1,72.0,70.1,68.0,72.0,70.1,65.0,100,100,99,30.04,29.87,0,0,0,0.10
2013-7-2,80.0,73.2,65.0,77.0,71.8,65.0,100,96,82,30.15,29.99,0,0,0,0.01
2013-7-3,82.0,75.4,70.0,74.0,72.1,70.0,100,90,77,30.19,30.10,0,0,0,0.00
2013-7-4,85.0,77.2,71.0,75.0,72.4,70.0,100,87,67,30.20,30.10,0,0,0,0.00
2013-7-5,86.0,78.3,72.0,75.0,72.4,68.0,100,83,68,30.17,30.05,0,0,0,0.00
2013-7-6,81.0,76.5,72.0,72.0,67.5,63.0,93,75,57,30.12,30.00,0,0,0,0.00
2013-7-7,85.0,75.2,70.0,75.0,69.6,63.0,100,84,67,30.06,29.92,0,0,0,0.16
2013-7-8,81.0,73.9,68.0,71.0,68.6,65.0,100,85,65,30.04,29.93,0,0,0,0.77
2013-7-9,81.0,73.2,68.0,73.0,69.3,66.0,100,89,65,30.06,29.89,0,0,0,0.21
2013-7-10,79.0,73.5,70.0,76.0,72.0,66.0,100,95,84,29.98,29.75,0,0,0,1.31
2013-7-11,78.0,71.7,64.0,75.0,64.4,57.0,100,79,57,30.03,29.75,0,0,0,0.00
2013-7-12,78.0,69.4,61.0,67.0,61.8,53.0,95,77,61,30.18,29.94,0,0,0,0.00
2013-7-13,75.0,70.1,64.0,72.0,64.7,54.0,100,84,60,30.29,30.14,0,0,0,0.00
2013-7-14,85.0,76.5,70.0,74.0,71.5,68.0,100,86,60,30.31,30.21,0,0,0,0.00
2013-7-15,86.0,78.3,71.0,73.0,69.0,64.0,92,75,59,30.25,30.16,0,0,0,0.00
2013-7-16,86.0,78.0,70.0,71.0,67.5,64.0,86,71,59,30.22,30.17,0,0,0,0.00
2013-7-17,88.0,80.2,71.0,73.0,69.9,65.0,94,72,50,30.22,30.02,0,0,0,0.00
2013-7-18,87.0,80.9,74.0,75.0,71.5,68.0,94,74,55,30.07,29.90,0,0,0,0.00
2013-7-19,90.0,81.6,73.0,75.0,70.0,62.0,95,70,50,29.97,29.72,0,0,0,0.00
2013-7-20,82.0,74.1,66.0,70.0,64.5,59.0,84,73,64,29.89,29.72,0,0,0,0.00
2013-7-21,79.0,70.7,60.0,68.0,61.9,56.0,94,75,58,29.96,29.83,0,0,0,0.00
2013-7-22,84.0,71.2,60.0,71.0,65.2,56.0,100,83,60,29.96,29.63,0,0,0,1.27
2013-7-23,78.0,71.8,68.0,73.0,69.9,60.0,100,94,79,29.80,29.55,0,0,0,1.44
2013-7-24,71.0,64.3,50.0,70.0,57.9,47.0,100,81,60,30.00,29.58,0,0,0,0.00
2013-7-25,67.0,57.8,48.0,57.0,52.0,47.0,100,82,67,30.04,29.94,0,0,0,0.00
2013-7-26,72.0,63.2,55.0,59.0,55.5,52.0,94,78,60,30.01,29.96,0,0,0,0.00
2013-7-27,78.0,68.9,59.0,64.0,59.0,53.0,94,72,51,30.01,29.90,0,0,0,0.00
2013-7-28,70.0,67.2,63.0,70.0,65.1,58.0,100,94,75,29.97,29.89,0,0,0,0.16
2013-7-29,76.0,68.0,59.0,67.0,59.7,53.0,100,77,54,30.09,29.92,0,0,0,0.00
2013-7-30,73.0,65.0,58.0,60.0,55.7,53.0,91,73,54,30.12,30.05,0,0,0,0.00
2013-7-31,76.0,66.3,59.0,61.0,56.8,52.0,87,73,46,30.12,29.91,0,0,0,0.00
2013-8-1,72.0,65.7,63.0,67.0,63.6,56.0,100,94,70,29.99,29.76,0,0,0,0.12
2013-8-2,75.0,67.2,62.0,65.0,60.1,55.0,100,80,55,29.85,29.76,0,0,0,0.00
2013-8-3,74.0,66.3,58.0,61.0,54.8,45.0,91,69,41,29.84,29.76,0,0,0,0.00
2013-8-4,71.0,60.8,52.0,61.0,53.1,48.0,96,77,56,29.96,29.77,0,0,0,0.04
2013-8-5,71.0,63.7,52.0,54.0,46.8,42.0,96,57,38,30.03,29.89,0,0,0,0.00
2013-8-6,75.0,64.4,53.0,59.0,51.6,46.0,90,65,39,30.08,29.98,0,0,0,0.00
2013-8-7,72.0,66.9,63.0,67.0,60.8,57.0,99,81,68,30.08,29.96,0,0,0,0.00
2013-8-8,80.0,71.9,66.0,71.0,68.5,63.0,99,90,73,30.01,29.88,0,0,0,0.65
2013-8-9,74.0,70.9,63.0,74.0,70.7,63.0,100,99,94,29.98,29.80,0,0,0,0.90
2013-8-10,72.0,66.0,55.0,68.0,55.8,45.0,100,73,45,30.06,29.87,0,0,0,0.00
2013-8-11,73.0,64.0,55.0,56.0,52.7,48.0,87,68,51,30.08,29.99,0,0,0,0.00
2013-8-12,75.0,67.3,60.0,62.0,57.3,53.0,86,71,54,30.02,29.78,0,0,0,0.00
2013-8-13,71.0,65.0,55.0,70.0,63.0,50.0,100,94,77,29.90,29.66,0,0,0,1.58
2013-8-14,65.0,58.4,54.0,57.0,53.1,50.0,95,83,68,30.03,29.73,0,0,0,0.00
2013-8-15,68.0,61.1,52.0,57.0,51.4,48.0,95,72,52,30.10,29.96,0,0,0,0.00
2013-8-16,73.0,64.2,55.0,57.0,52.7,50.0,87,68,48,30.24,30.08,0,0,0,0.00
2013-8-17,76.0,66.6,57.0,62.0,55.6,50.0,89,70,42,30.28,30.19,0,0,0,0.00
2013-8-18,70.0,65.6,61.0,63.0,59.4,54.0,93,81,65,30.26,30.05,0,0,0,0.00
2013-8-19,76.0,67.9,62.0,64.0,59.3,54.0,95,76,51,30.09,29.99,0,0,0,0.00
2013-8-20,78.0,70.6,63.0,64.0,59.3,54.0,90,69,48,30.14,30.01,0,0,0,0.00
2013-8-21,81.0,72.2,64.0,67.0,62.9,60.0,92,74,52,30.17,29.96,0,0,0,0.00
2013-8-22,82.0,72.5,67.0,71.0,66.0,61.0,100,81,55,30.04,29.83,0,0,0,0.18
2013-8-23,70.0,64.3,57.0,68.0,56.2,46.0,100,77,45,30.23,29.89,0,0,0,0.00
2013-8-24,73.0,63.6,53.0,56.0,48.1,41.0,90,60,36,30.32,30.12,0,0,0,0.00
2013-8-25,76.0,66.2,57.0,59.0,54.9,46.0,86,68,50,30.33,30.05,0,0,0,0.00
2013-8-26,73.0,66.5,61.0,68.0,63.8,57.0,100,91,78,30.14,29.82,0,0,0,0.35
2013-8-27,78.0,71.0,66.0,75.0,68.3,66.0,100,92,74,29.91,29.83,0,0,0,0.06
2013-8-28,83.0,72.4,66.0,72.0,67.3,59.0,100,85,60,29.98,29.84,0,0,0,0.00
2013-8-29,76.0,68.8,64.0,67.0,63.5,59.0,98,84,71,30.04,29.92,0,0,0,0.00
2013-8-30,79.0,70.6,64.0,70.0,66.8,62.0,100,89,68,29.99,29.77,0,0,0,0.07
2013-8-31,78.0,71.2,68.0,76.0,70.7,68.0,100,99,91,29.83,29.75,0,0,0,0.30
2013-9-1,79.0,72.5,69.0,74.0,71.1,68.0,100,95,83,29.85,29.76,0,0,0,0.34
2013-9-2,77.0,69.9,64.0,75.0,69.4,64.0,100,98,89,29.82,29.68,0,0,0,0.35
2013-9-3,70.0,63.6,58.0,65.0,60.2,54.0,100,90,59,29.89,29.72,0,0,0,0.00
2013-9-4,72.0,64.5,57.0,60.0,55.0,49.0,100,74,49,29.92,29.82,0,0,0,0.00
2013-9-5,66.0,57.4,46.0,59.0,46.3,36.0,97,68,39,30.19,29.84,0,0,0,0.00
2013-9-6,63.0,53.5,45.0,46.0,40.7,33.0,84,64,39,30.21,30.01,0,0,0,0.00
2013-9-7,69.0,59.2,49.0,56.0,49.0,42.0,89,70,52,30.07,29.73,0,0,0,0.00
2013-9-8,64.0,57.3,43.0,61.0,47.5,36.0,99,72,43,30.12,29.73,0,0,0,0.00
2013-9-9,64.0,55.4,42.0,60.0,46.4,37.0,100,73,55,30.17,30.00,0,0,0,0.00
2013-9-10,75.0,67.4,57.0,74.0,66.3,53.0,100,97,83,30.09,29.94,0,0,0,0.95
2013-9-11,89.0,76.6,67.0,79.0,72.5,64.0,100,88,68,30.10,29.88,0,0,0,0.16
2013-9-12,79.0,69.3,65.0,75.0,68.5,61.0,100,97,80,29.94,29.59,0,0,0,2.48
2013-9-13,66.0,58.4,49.0,66.0,58.4,47.0,100,100,98,29.87,29.60,0,0,0,0.44
2013-9-14,57.0,51.5,47.0,53.0,48.4,42.0,100,90,76,30.08,29.80,0,0,0,0.00
2013-9-15,64.0,54.4,45.0,53.0,48.4,42.0,92,81,66,30.12,29.97,0,0,0,0.00
2013-9-16,60.0,51.7,41.0,55.0,48.3,37.0,100,88,77,30.34,29.97,0,0,0,0.03
2013-9-17,57.0,49.1,38.0,45.0,40.4,37.0,100,74,56,30.40,30.23,0,0,0,0.00
2013-9-18,66.0,56.4,44.0,50.0,44.8,39.0,92,67,48,30.26,30.07,0,0,0,0.00
2013-9-19,72.0,60.3,50.0,54.0,47.8,44.0,81,65,40,30.10,29.99,0,0,0,0.00
2013-9-20,74.0,62.9,54.0,60.0,53.7,48.0,86,73,55,30.03,29.83,0,0,0,0.00
2013-9-21,69.0,62.6,56.0,64.0,59.0,53.0,100,88,72,29.92,29.53,0,0,0,0.29
2013-9-22,62.0,52.5,44.0,62.0,47.9,39.0,100,85,65,29.91,29.57,0,0,0,0.29
2013-9-23,55.0,45.9,40.0,43.0,40.0,36.0,99,81,61,30.00,29.84,0,0,0,0.00
2013-9-24,60.0,48.3,38.0,46.0,42.2,36.0,100,81,57,30.00,29.81,0,0,0,0.00
2013-9-25,63.0,53.6,46.0,51.0,47.3,43.0,99,81,61,29.95,29.83,0,0,0,0.00
2013-9-26,59.0,52.2,46.0,50.0,47.6,45.0,100,85,66,30.14,29.91,0,0,0,0.00
2013-9-27,56.0,51.5,47.0,53.0,49.4,46.0,100,93,84,30.28,30.07,0,0,0,0.00
2013-9-28,67.0,59.1,48.0,56.0,52.0,47.0,100,79,63,30.29,30.13,0,0,0,0.00
2013-9-29,68.0,59.2,53.0,58.0,52.3,47.0,97,79,57,30.17,29.98,0,0,0,0.00
2013-9-30,68.0,58.8,51.0,56.0,50.1,46.0,94,74,50,30.02,29.89,0,0,0,0.00
2013-10-1,71.0,61.4,51.0,59.0,53.2,48.0,95,76,61,29.95,29.85,0,0,0,0.00
2013-10-2,71.0,62.7,56.0,62.0,56.2,48.0,93,80,66,30.03,29.86,0,0,0,0.00
2013-10-3,66.0,60.9,53.0,54.0,49.4,46.0,88,67,51,30.07,29.96,0,0,0,0.02
2013-10-4,64.0,57.8,55.0,59.0,55.6,47.0,100,93,55,30.02,29.96,0,0,0,0.27
2013-10-5,57.0,55.8,52.0,57.0,55.8,51.0,100,100,100,30.05,29.98,0,0,0,0.18
2013-10-6,64.0,57.3,51.0,63.0,57.3,51.0,100,100,98,30.03,29.83,0,0,0,0.21
2013-10-7,72.0,61.5,51.0,69.0,59.1,27.0,100,92,76,30.08,29.57,0,0,0,1.04
2013-10-8,60.0,53.1,47.0,48.0,41.3,35.0,91,66,47,30.35,29.89,0,0,0,0.01
2013-10-9,60.0,52.3,44.0,46.0,39.4,35.0,89,62,51,30.40,30.21,0,0,0,0.00
2013-10-10,54.0,50.9,43.0,49.0,45.0,37.0,89,81,57,30.28,30.05,0,0,0,0.00
2013-10-11,64.0,57.2,47.0,52.0,43.0,29.0,96,64,30,30.15,30.02,0,0,0,0.00
2013-10-12,69.0,58.0,51.0,53.0,46.3,29.0,89,67,32,30.32,30.09,0,0,0,0.00
2013-10-13,65.0,53.5,47.0,50.0,47.0,43.0,97,80,51,30.36,30.24,0,0,0,0.00
2013-10-14,61.0,54.2,47.0,56.0,50.9,45.0,100,89,68,30.28,30.17,0,0,0,0.00
2013-10-15,65.0,58.1,54.0,60.0,55.2,45.0,100,90,77,30.19,29.98,0,0,0,0.00
2013-10-16,61.0,56.5,51.0,58.0,52.0,45.0,100,85,77,30.04,29.75,0,0,0,0.02
2013-10-17,65.0,59.3,52.0,61.0,52.6,45.0,100,81,54,29.83,29.49,0,0,0,0.22
2013-10-18,61.0,53.1,44.0,61.0,44.9,34.0,100,76,43,29.87,29.49,0,0,0,0.22
2013-10-19,61.0,52.5,44.0,50.0,41.6,36.0,89,68,46,29.87,29.60,0,0,0,0.01
2013-10-20,55.0,48.3,42.0,50.0,36.3,30.0,92,64,44,29.98,29.60,0,0,0,0.01
2013-10-21,62.0,51.7,42.0,45.0,38.1,33.0,82,61,42,30.01,29.68,0,0,0,0.00
2013-10-22,52.0,47.1,39.0,48.0,39.6,29.0,98,77,59,29.81,29.64,0,0,0,0.04
2013-10-23,48.0,41.6,35.0,36.0,31.5,28.0,94,70,56,29.71,29.52,0,0,0,0.00
2013-10-24,44.0,39.0,33.0,36.0,30.4,24.0,98,76,48,29.92,29.60,0,0,0,0.00
2013-10-25,44.0,38.0,33.0,36.0,31.4,25.0,99,80,56,30.05,29.82,0,0,0,0.00
2013-10-26,47.0,40.4,33.0,34.0,30.7,26.0,96,72,47,30.04,29.69,0,0,0,0.00
2013-10-27,46.0,40.7,34.0,34.0,32.0,28.0,86,73,55,29.98,29.69,0,0,0,0.00
2013-10-28,52.0,39.0,30.0,37.0,27.2,18.0,86,66,43,30.29,29.95,0,0,0,0.00
2013-10-29,41.0,34.4,27.0,24.0,19.8,17.0,78,59,45,30.33,30.15,0,0,0,0.00
2013-10-30,47.0,41.2,34.0,39.0,32.3,17.0,89,72,48,30.22,30.02,0,0,0,0.00
2013-10-31,63.0,52.4,41.0,59.0,51.9,37.0,100,98,75,30.13,29.33,0,0,0,0.52
2013-11-1,66.0,59.5,49.0,64.0,51.9,37.0,100,78,43,29.62,29.29,0,0,0,0.20
2013-11-2,56.0,47.5,34.0,47.0,40.4,21.0,100,78,57,29.97,29.53,0,0,0,0.02
2013-11-3,37.0,30.3,23.0,35.0,19.3,11.0,94,67,48,30.49,29.74,0,0,0,0.00
2013-11-4,34.0,28.5,23.0,18.0,14.2,12.0,76,58,45,30.53,30.35,0,0,0,0.00
2013-11-5,47.0,38.9,26.0,41.0,28.4,13.0,92,68,51,30.53,30.25,0,0,0,0.00
2013-11-6,54.0,48.5,42.0,51.0,42.9,37.0,94,81,68,30.34,29.67,0,0,0,0.15
2013-11-7,54.0,44.4,35.0,53.0,41.9,31.0,100,91,70,29.82,29.67,0,0,0,0.60
2013-11-8,39.0,33.3,27.0,35.0,27.8,20.0,97,83,58,30.10,29.75,0,0,0,0.00
2013-11-9,41.0,34.7,27.0,30.0,24.9,19.0,83,71,59,30.10,29.67,0,0,0,0.00
2013-11-10,45.0,40.1,35.0,37.0,31.4,24.0,89,73,60,29.99,29.63,0,0,0,0.00
2013-11-11,44.0,39.3,33.0,33.0,27.5,17.0,79,65,52,30.04,29.79,0,0,0,0.00
2013-11-12,40.0,25.5,20.0,33.0,17.9,9.0,99,76,62,30.17,29.81,0,0,0,0.00
2013-11-13,31.0,24.6,17.0,17.0,12.9,6.0,82,65,39,30.19,29.95,0,0,0,0.00
2013-11-14,47.0,35.8,25.0,22.0,15.9,10.0,73,48,34,30.07,29.95,0,0,0,0.00
2013-11-15,52.0,43.4,36.0,19.0,14.8,10.0,38,33,22,30.16,29.99,0,0,0,0.00
2013-11-16,55.0,48.3,42.0,44.0,29.8,17.0,88,52,34,30.22,30.08,0,0,0,0.00
2013-11-17,60.0,53.4,46.0,58.0,51.3,37.0,100,93,72,30.15,29.38,0,0,0,0.30
2013-11-18,60.0,50.2,36.0,59.0,38.1,18.0,100,66,40,29.82,29.39,0,0,0,0.31
2013-11-19,37.0,28.6,19.0,27.0,17.4,11.0,87,66,54,30.42,29.66,0,0,0,0.00
2013-11-20,31.0,25.1,19.0,16.0,13.3,11.0,79,64,52,30.49,30.25,0,0,0,0.00
2013-11-21,41.0,32.1,19.0,34.0,21.6,12.0,85,68,54,30.49,30.05,0,0,0,0.02
2013-11-22,47.0,41.1,37.0,47.0,40.1,21.0,100,97,75,30.25,29.76,0,0,0,0.09
2013-11-23,40.0,26.7,15.0,38.0,20.9,1.0,100,83,50,29.91,29.72,0,0,0,0.05
2013-11-24,19.0,12.9,7.0,13.0,0.9,-5.0,94,62,41,30.20,29.76,0,0,0,0.06
2013-11-25,27.0,19.7,7.0,16.0,7.7,-2.0,74,63,55,30.22,30.02,0,0,0,0.00
2013-11-26,43.0,28.5,22.0,40.0,26.4,11.0,100,94,55,30.12,29.28,0,0,0,0.72
2013-11-27,43.0,32.6,18.0,43.0,32.6,13.0,100,100,89,29.85,29.26,0,0,0,1.10
2013-11-28,27.0,19.0,15.0,27.0,12.8,7.0,100,80,61,30.35,29.47,0,0,0,0.00
2013-11-29,26.0,17.7,9.0,15.0,10.4,5.0,93,77,56,30.57,30.26,0,0,0,0.00
2013-11-30,30.0,20.0,8.0,26.0,10.0,5.0,94,69,50,30.57,30.05,0,0,0,0.00
2013-12-1,37.0,32.3,25.0,31.0,28.2,18.0,97,88,76,30.17,29.82,0,0,0,0.00
2013-12-2,36.0,33.5,30.0,36.0,31.2,26.0,100,93,86,29.87,29.76,0,0,0,0.00
2013-12-3,37.0,32.6,27.0,36.0,30.2,24.0,100,93,80,29.98,29.77,0,0,0,0.00
2013-12-4,44.0,32.4,26.0,38.0,26.9,23.0,99,84,66,30.02,29.87,0,0,0,0.00
2013-12-5,53.0,46.6,32.0,53.0,45.6,26.0,100,97,83,30.01,29.77,0,0,0,0.29
2013-12-6,48.0,34.9,27.0,48.0,34.1,25.0,100,98,90,30.10,29.80,0,0,0,0.32
2013-12-7,31.0,27.1,23.0,28.0,23.0,17.0,100,87,72,30.39,30.02,0,0,0,0.00
2013-12-8,26.0,23.2,21.0,23.0,18.6,16.0,100,86,74,30.43,30.00,0,0,0,0.00
2013-12-9,34.0,28.6,22.0,34.0,27.4,16.0,100,97,74,30.24,29.74,0,0,0,0.00
2013-12-10,32.0,23.9,17.0,30.0,18.6,5.0,100,84,59,29.99,29.68,0,0,0,0.00
2013-12-11,24.0,19.4,14.0,18.0,12.0,-2.0,99,76,58,30.09,29.84,0,0,0,0.00
2013-12-12,20.0,13.3,8.0,14.0,2.8,-4.0,93,66,49,30.12,29.74,0,0,0,0.00
2013-12-13,22.0,14.1,2.0,19.0,5.9,-5.0,95,73,60,30.28,29.74,0,0,0,0.00
2013-12-14,23.0,5.9,2.0,16.0,1.8,-5.0,100,87,73,30.33,29.36,0,0,0,0.00
2013-12-15,25.0,21.0,14.0,24.0,19.1,6.0,100,95,63,29.75,29.33,0,0,0,0.00
2013-12-16,22.0,13.9,6.0,21.0,7.4,-1.0,99,79,60,30.00,29.54,0,0,0,0.00
2013-12-17,20.0,9.2,3.0,14.0,7.0,-1.0,100,94,82,29.99,29.72,0,0,0,0.00
2013-12-18,28.0,21.7,9.0,23.0,18.1,7.0,100,90,76,29.89,29.72,0,0,0,0.00
2013-12-19,40.0,32.8,22.0,28.0,22.9,18.0,93,70,60,29.94,29.78,0,0,0,0.05
2013-12-20,46.0,41.5,35.0,39.0,32.2,24.0,88,71,58,29.93,29.75,0,0,0,0.19
2013-12-21,50.0,47.1,42.0,50.0,42.8,30.0,100,86,62,29.81,29.57,0,0,0,0.43
2013-12-22,62.0,49.9,32.0,61.0,49.1,32.0,100,97,80,29.92,29.50,0,0,0,0.08
2013-12-23,46.0,35.8,20.0,45.0,34.4,16.0,100,96,78,30.07,29.84,0,0,0,0.24
2013-12-24,29.0,20.2,8.0,26.0,13.7,-2.0,93,79,72,30.29,29.96,0,0,0,0.00
2013-12-25,22.0,11.6,3.0,16.0,3.0,-2.0,83,72,63,30.33,30.05,0,0,0,0.00
2013-12-26,26.0,23.2,19.0,24.0,17.9,7.0,98,84,63,30.17,29.91,0,0,0,0.00
2013-12-27,29.0,25.7,20.0,23.0,18.9,15.0,89,79,70,30.11,29.90,0,0,0,0.00
2013-12-28,40.0,33.1,24.0,32.0,25.7,19.0,90,78,61,30.04,29.81,0,0,0,0.00
2013-12-29,41.0,35.7,31.0,38.0,30.6,25.0,100,85,60,29.89,29.43,0,0,0,0.65
2013-12-30,37.0,17.7,5.0,37.0,12.6,0.0,100,83,65,30.03,29.52,0,0,0,0.15
2013-12-31,19.0,11.7,5.0,16.0,5.6,1.0,97,81,61,30.08,29.79,0,0,0,0.00
2014-1-1,18.0,12.1,0.0,10.0,5.9,-6.0,97,80,62,30.15,29.98,0,0,0,0.00
2014-1-2,12.0,-5.2,-11.0,10.0,-7.2,-15.0,97,95,93,30.10,29.57,0,0,0,0.00